createdAt,value
2023-04-01T00:00:33.171Z,78.54
2023-04-01T00:01:33.379Z,78.13
2023-04-01T00:02:33.786Z,78.54
2023-04-01T00:03:34.244Z,78.85
2023-04-01T00:04:34.296Z,79.05
2023-04-01T00:05:34.669Z,79.16
2023-04-01T00:06:34.817Z,79.16
2023-04-01T00:07:35.070Z,79.16
2023-04-01T00:08:35.311Z,79.25
2023-04-01T00:09:35.698Z,79.25
2023-04-01T00:10:35.854Z,79.46
2023-04-01T00:11:36.182Z,79.66
2023-04-01T00:12:36.410Z,79.77
2023-04-01T00:13:36.686Z,79.97
2023-04-01T00:14:37.027Z,79.97
2023-04-01T00:15:37.339Z,79.77
2023-04-01T00:16:37.680Z,79.80
2023-04-01T00:17:38.927Z,79.87
2023-04-01T00:18:38.275Z,79.97
2023-04-01T00:19:38.640Z,79.80
2023-04-01T00:20:38.811Z,79.77
2023-04-01T00:21:39.143Z,79.91
2023-04-01T00:22:39.301Z,80.01
2023-04-01T00:23:39.650Z,79.87
2023-04-01T00:24:39.863Z,79.66
2023-04-01T00:25:40.149Z,79.77
2023-04-01T00:26:40.388Z,79.36
2023-04-01T00:27:40.685Z,79.50
2023-04-01T00:28:41.103Z,79.46
2023-04-01T00:29:41.313Z,79.36
2023-04-01T00:30:41.528Z,79.16
2023-04-01T00:31:41.889Z,79.05
2023-04-01T00:32:42.135Z,78.64
2023-04-01T00:33:42.374Z,78.75
2023-04-01T00:34:42.695Z,78.54
2023-04-01T00:35:42.983Z,78.23
2023-04-01T00:36:43.274Z,78.23
2023-04-01T00:37:43.584Z,78.34
2023-04-01T00:38:43.853Z,77.93
2023-04-01T00:39:44.368Z,78.23
2023-04-01T00:40:44.451Z,78.13
2023-04-01T00:41:44.808Z,78.03
2023-04-01T00:42:45.088Z,77.72
2023-04-01T00:43:45.330Z,77.62
2023-04-01T00:44:45.668Z,77.62
2023-04-01T00:45:45.933Z,77.42
2023-04-01T00:46:46.301Z,77.31
2023-04-01T00:47:46.563Z,77.22
2023-04-01T00:48:46.720Z,77.01
2023-04-01T00:49:46.997Z,77.01
2023-04-01T00:50:47.302Z,76.70
2023-04-01T00:51:48.045Z,76.81
2023-04-01T00:52:47.853Z,77.01
2023-04-01T00:53:48.287Z,76.70
2023-04-01T00:54:49.831Z,76.40
2023-04-01T00:55:48.726Z,76.50
2023-04-01T00:56:49.069Z,76.50
2023-04-01T00:57:49.322Z,76.40
2023-04-01T00:58:49.634Z,76.40
2023-04-01T00:59:49.964Z,75.78
2023-04-01T01:00:50.181Z,75.78
2023-04-01T01:01:50.471Z,75.99
2023-04-01T01:02:50.716Z,75.89
2023-04-01T01:03:51.073Z,75.78
2023-04-01T01:04:51.316Z,75.78
2023-04-01T01:05:52.035Z,75.58
2023-04-01T01:06:51.954Z,75.48
2023-04-01T01:07:52.259Z,75.48
2023-04-01T01:08:52.554Z,75.58
2023-04-01T01:09:52.828Z,75.37
2023-04-01T01:10:53.110Z,75.48
2023-04-01T01:11:53.306Z,75.48
2023-04-01T01:12:54.474Z,75.54
2023-04-01T01:13:53.914Z,75.54
2023-04-01T01:14:54.254Z,75.54
2023-04-01T01:15:54.741Z,75.24
2023-04-01T01:16:54.968Z,75.17
2023-04-01T01:17:55.182Z,75.48
2023-04-01T01:18:55.458Z,75.34
2023-04-01T01:19:55.681Z,75.34
2023-04-01T01:20:55.890Z,74.76
2023-04-01T01:21:56.264Z,75.27
2023-04-01T01:22:56.496Z,75.37
2023-04-01T01:23:56.756Z,75.48
2023-04-01T01:24:57.013Z,75.58
2023-04-01T01:25:57.369Z,75.58
2023-04-01T01:26:57.676Z,75.27
2023-04-01T01:27:57.931Z,75.44
2023-04-01T01:28:58.343Z,75.24
2023-04-01T01:29:58.489Z,74.87
2023-04-01T01:30:58.816Z,74.76
2023-04-01T01:31:59.194Z,74.97
2023-04-01T01:32:59.517Z,74.97
2023-04-01T01:33:59.681Z,74.87
2023-04-01T01:34:59.981Z,74.87
2023-04-01T01:36:00.271Z,74.76
2023-04-01T01:37:01.438Z,74.66
2023-04-01T01:38:00.772Z,74.97
2023-04-01T01:39:01.160Z,75.17
2023-04-01T01:40:01.451Z,74.97
2023-04-01T01:41:01.723Z,74.76
2023-04-01T01:42:02.008Z,74.56
2023-04-01T01:43:02.331Z,74.66
2023-04-01T01:44:02.670Z,74.56
2023-04-01T01:45:02.965Z,74.56
2023-04-01T01:46:03.270Z,74.56
2023-04-01T01:47:03.509Z,74.66
2023-04-01T01:48:03.742Z,74.35
2023-04-01T01:49:04.017Z,74.15
2023-04-01T01:50:04.347Z,74.56
2023-04-01T01:51:04.592Z,74.25
2023-04-01T01:52:04.942Z,73.94
2023-04-01T01:53:05.196Z,74.05
2023-04-01T01:54:05.467Z,73.94
2023-04-01T01:55:05.717Z,73.94
2023-04-01T01:56:06.070Z,73.84
2023-04-01T01:57:06.487Z,73.94
2023-04-01T01:58:06.567Z,74.05
2023-04-01T01:59:06.865Z,74.05
2023-04-01T02:00:07.175Z,74.35
2023-04-01T02:01:07.483Z,74.15
2023-04-01T02:02:07.740Z,74.25
2023-04-01T02:03:08.142Z,74.15
2023-04-01T02:04:08.388Z,74.25
2023-04-01T02:05:08.669Z,74.15
2023-04-01T02:06:08.908Z,74.25
2023-04-01T02:07:09.345Z,74.22
2023-04-01T02:08:09.627Z,74.01
2023-04-01T02:09:09.999Z,74.11
2023-04-01T02:10:10.258Z,74.05
2023-04-01T02:11:10.561Z,74.25
2023-04-01T02:12:10.837Z,74.46
2023-04-01T02:13:11.191Z,74.35
2023-04-01T02:14:11.401Z,74.46
2023-04-01T02:15:11.658Z,74.35
2023-04-01T02:16:12.105Z,74.15
2023-04-01T02:17:12.360Z,74.35
2023-04-01T02:18:12.722Z,74.35
2023-04-01T02:19:12.947Z,74.15
2023-04-01T02:20:13.262Z,74.46
2023-04-01T02:21:13.512Z,74.32
2023-04-01T02:22:13.831Z,74.52
2023-04-01T02:23:14.210Z,74.42
2023-04-01T02:24:14.425Z,74.11
2023-04-01T02:25:14.676Z,74.22
2023-04-01T02:26:14.980Z,74.35
2023-04-01T02:27:15.365Z,74.56
2023-04-01T02:28:15.559Z,74.66
2023-04-01T02:29:15.908Z,74.66
2023-04-01T02:30:16.179Z,74.76
2023-04-01T02:31:16.534Z,74.66
2023-04-01T02:32:16.742Z,74.76
2023-04-01T02:33:17.099Z,74.66
2023-04-01T02:34:17.344Z,74.66
2023-04-01T02:35:17.559Z,74.97
2023-04-01T02:36:18.066Z,74.87
2023-04-01T02:37:18.202Z,74.76
2023-04-01T02:38:18.519Z,74.63
2023-04-01T02:39:18.819Z,74.66
2023-04-01T02:40:19.131Z,74.66
2023-04-01T02:41:19.450Z,74.76
2023-04-01T02:42:19.709Z,75.07
2023-04-01T02:43:20.072Z,75.27
2023-04-01T02:44:20.389Z,75.17
2023-04-01T02:45:20.674Z,75.17
2023-04-01T02:46:21.003Z,75.07
2023-04-01T02:47:21.350Z,75.07
2023-04-01T02:48:21.636Z,75.27
2023-04-01T02:49:21.948Z,75.27
2023-04-01T02:50:22.313Z,75.27
2023-04-01T02:51:22.440Z,75.27
2023-04-01T02:52:22.770Z,75.48
2023-04-01T02:53:23.060Z,75.78
2023-04-01T02:54:23.400Z,76.09
2023-04-01T02:55:23.804Z,76.29
2023-04-01T02:56:23.962Z,76.53
2023-04-01T02:57:24.323Z,76.94
2023-04-01T02:58:24.615Z,77.04
2023-04-01T02:59:24.919Z,77.35
2023-04-01T03:00:25.205Z,77.66
2023-04-01T03:01:25.473Z,77.66
2023-04-01T03:02:25.832Z,77.66
2023-04-01T03:03:26.274Z,77.56
2023-04-01T03:04:26.315Z,77.76
2023-04-01T03:05:26.645Z,77.97
2023-04-01T03:06:26.963Z,78.27
2023-04-01T03:07:27.252Z,78.27
2023-04-01T03:08:27.669Z,78.27
2023-04-01T03:09:27.809Z,78.27
2023-04-01T03:10:28.014Z,78.17
2023-04-01T03:11:28.330Z,78.27
2023-04-01T03:12:28.595Z,78.27
2023-04-01T03:13:28.988Z,78.48
2023-04-01T03:14:29.261Z,78.38
2023-04-01T03:15:29.537Z,78.17
2023-04-01T03:16:29.962Z,78.17
2023-04-01T03:17:30.203Z,78.48
2023-04-01T03:18:30.450Z,78.48
2023-04-01T03:19:30.849Z,78.48
2023-04-01T03:20:30.969Z,78.72
2023-04-01T03:21:31.289Z,78.72
2023-04-01T03:22:31.571Z,78.82
2023-04-01T03:23:31.785Z,78.82
2023-04-01T03:24:32.153Z,78.92
2023-04-01T03:25:32.569Z,78.92
2023-04-01T03:26:32.816Z,78.78
2023-04-01T03:27:32.935Z,78.58
2023-04-01T03:28:33.255Z,78.68
2023-04-01T03:29:33.541Z,78.78
2023-04-01T03:30:33.877Z,78.68
2023-04-01T03:31:34.220Z,78.68
2023-04-01T03:32:34.425Z,78.78
2023-04-01T03:33:34.684Z,78.88
2023-04-01T03:34:34.934Z,78.99
2023-04-01T03:35:35.376Z,79.33
2023-04-01T03:36:35.637Z,79.43
2023-04-01T03:37:35.756Z,79.43
2023-04-01T03:38:36.091Z,79.53
2023-04-01T03:39:36.364Z,79.64
2023-04-01T03:40:36.705Z,79.64
2023-04-01T03:41:36.980Z,79.74
2023-04-01T03:42:37.221Z,79.74
2023-04-01T03:43:37.505Z,79.74
2023-04-01T03:44:37.734Z,80.05
2023-04-01T03:45:38.109Z,80.05
2023-04-01T03:46:38.461Z,80.25
2023-04-01T03:47:38.623Z,80.05
2023-04-01T03:48:38.854Z,80.05
2023-04-01T03:49:39.166Z,79.64
2023-04-01T03:50:39.553Z,79.74
2023-04-01T03:51:39.829Z,79.53
2023-04-01T03:52:41.001Z,79.64
2023-04-01T03:53:40.484Z,79.84
2023-04-01T03:54:40.751Z,79.84
2023-04-01T03:55:41.099Z,79.64
2023-04-01T03:56:41.404Z,79.43
2023-04-01T03:57:41.654Z,79.43
2023-04-01T03:58:41.988Z,79.43
2023-04-01T03:59:42.289Z,79.43
2023-04-01T04:00:42.581Z,79.23
2023-04-01T04:01:42.880Z,79.13
2023-04-01T04:02:43.338Z,79.02
2023-04-01T04:03:43.491Z,78.92
2023-04-01T04:04:43.760Z,78.78
2023-04-01T04:05:44.126Z,78.78
2023-04-01T04:06:44.388Z,78.58
2023-04-01T04:07:44.690Z,78.68
2023-04-01T04:08:44.977Z,78.72
2023-04-01T04:09:45.301Z,78.82
2023-04-01T04:10:45.602Z,78.72
2023-04-01T04:11:45.906Z,78.68
2023-04-01T04:12:46.220Z,78.68
2023-04-01T04:13:46.523Z,78.61
2023-04-01T04:14:46.814Z,78.61
2023-04-01T04:15:47.280Z,78.61
2023-04-01T04:16:47.452Z,78.72
2023-04-01T04:17:47.654Z,78.58
2023-04-01T04:18:47.969Z,78.52
2023-04-01T04:19:48.265Z,78.38
2023-04-01T04:20:48.518Z,78.52
2023-04-01T04:21:48.727Z,78.31
2023-04-01T04:22:49.077Z,78.20
2023-04-01T04:23:49.348Z,78.20
2023-04-01T04:24:49.658Z,78.00
2023-04-01T04:25:50.066Z,77.86
2023-04-01T04:26:50.264Z,77.86
2023-04-01T04:27:50.606Z,77.45
2023-04-01T04:28:50.661Z,77.45
2023-04-01T04:29:50.942Z,77.56
2023-04-01T04:30:51.348Z,77.45
2023-04-01T04:31:51.657Z,77.35
2023-04-01T04:32:52.005Z,77.35
2023-04-01T04:33:52.260Z,77.15
2023-04-01T04:34:52.556Z,77.04
2023-04-01T04:35:52.885Z,77.04
2023-04-01T04:36:53.126Z,77.04
2023-04-01T04:37:53.448Z,76.84
2023-04-01T04:38:53.792Z,76.94
2023-04-01T04:39:54.053Z,76.84
2023-04-01T04:40:54.404Z,76.94
2023-04-01T04:41:54.671Z,76.84
2023-04-01T04:42:54.882Z,76.84
2023-04-01T04:43:55.077Z,76.33
2023-04-01T04:44:55.347Z,76.43
2023-04-01T04:45:55.634Z,76.53
2023-04-01T04:46:58.340Z,76.53
2023-04-01T04:47:56.343Z,76.43
2023-04-01T04:48:56.606Z,76.33
2023-04-01T04:49:56.925Z,76.53
2023-04-01T04:50:57.162Z,76.74
2023-04-01T04:51:57.491Z,77.15
2023-04-01T04:52:57.684Z,77.45
2023-04-01T04:53:57.979Z,78.00
2023-04-01T04:54:58.300Z,78.31
2023-04-01T04:55:58.649Z,78.61
2023-04-01T04:56:58.824Z,78.72
2023-04-01T04:57:59.128Z,78.82
2023-04-01T04:58:59.458Z,79.13
2023-04-01T04:59:59.694Z,79.33
2023-04-01T05:01:00.057Z,79.53
2023-04-01T05:02:00.315Z,79.94
2023-04-01T05:03:00.630Z,80.05
2023-04-01T05:04:00.804Z,80.49
2023-04-01T05:05:01.154Z,80.80
2023-04-01T05:06:01.477Z,80.80
2023-04-01T05:07:01.800Z,81.10
2023-04-01T05:08:02.088Z,81.41
2023-04-01T05:09:02.402Z,81.41
2023-04-01T05:10:03.110Z,81.51
2023-04-01T05:11:03.010Z,81.51
2023-04-01T05:12:03.287Z,81.51
2023-04-01T05:13:03.447Z,81.72
2023-04-01T05:14:03.811Z,81.72
2023-04-01T05:15:04.012Z,81.72
2023-04-01T05:16:04.322Z,81.82
2023-04-01T05:17:04.793Z,81.82
2023-04-01T05:18:04.974Z,82.27
2023-04-01T05:19:05.259Z,82.54
2023-04-01T05:20:05.430Z,82.54
2023-04-01T05:21:05.741Z,82.54
2023-04-01T05:22:06.116Z,82.34
2023-04-01T05:23:06.350Z,82.34
2023-04-01T05:24:06.732Z,82.34
2023-04-01T05:25:06.959Z,82.13
2023-04-01T05:26:07.223Z,82.03
2023-04-01T05:27:07.460Z,81.93
2023-04-01T05:28:07.704Z,82.13
2023-04-01T05:29:07.986Z,82.23
2023-04-01T05:30:08.195Z,82.23
2023-04-01T05:31:08.568Z,82.34
2023-04-01T05:32:08.688Z,82.23
2023-04-01T05:33:09.122Z,82.23
2023-04-01T05:34:09.262Z,82.34
2023-04-01T05:35:09.732Z,82.23
2023-04-01T05:36:09.944Z,81.93
2023-04-01T05:37:10.343Z,81.82
2023-04-01T05:38:10.362Z,81.82
2023-04-01T05:39:10.680Z,81.62
2023-04-01T05:40:10.989Z,81.51
2023-04-01T05:41:11.355Z,81.17
2023-04-01T05:42:11.605Z,81.31
2023-04-01T05:43:11.843Z,81.17
2023-04-01T05:44:12.096Z,81.10
2023-04-01T05:45:12.448Z,81.17
2023-04-01T05:46:12.644Z,81.17
2023-04-01T05:47:13.130Z,81.31
2023-04-01T05:48:13.293Z,81.17
2023-04-01T05:49:13.788Z,81.38
2023-04-01T05:50:14.095Z,81.17
2023-04-01T05:51:14.358Z,81.17
2023-04-01T05:52:14.569Z,80.46
2023-04-01T05:53:14.904Z,80.35
2023-04-01T05:54:15.066Z,80.35
2023-04-01T05:55:15.392Z,80.56
2023-04-01T05:56:15.672Z,80.42
2023-04-01T05:57:15.968Z,80.15
2023-04-01T05:58:16.213Z,80.05
2023-04-01T05:59:16.486Z,80.35
2023-04-01T06:00:16.756Z,80.46
2023-04-01T06:01:16.983Z,80.46
2023-04-01T06:02:17.885Z,80.42
2023-04-01T06:03:17.626Z,80.46
2023-04-01T06:04:17.858Z,80.66
2023-04-01T06:05:18.113Z,80.87
2023-04-01T06:06:18.358Z,81.17
2023-04-01T06:07:18.800Z,81.27
2023-04-01T06:08:20.365Z,81.17
2023-04-01T06:09:19.346Z,81.27
2023-04-01T06:10:19.485Z,81.51
2023-04-01T06:11:19.706Z,81.72
2023-04-01T06:12:20.258Z,81.93
2023-04-01T06:13:20.951Z,81.93
2023-04-01T06:14:21.517Z,81.72
2023-04-01T06:15:21.187Z,81.72
2023-04-01T06:16:21.155Z,81.58
2023-04-01T06:17:21.346Z,81.68
2023-04-01T06:18:21.526Z,81.38
2023-04-01T06:19:24.158Z,81.17
2023-04-01T06:20:22.939Z,81.27
2023-04-01T06:21:22.461Z,81.17
2023-04-01T06:22:22.731Z,81.27
2023-04-01T06:23:23.023Z,81.27
2023-04-01T06:24:23.228Z,81.17
2023-04-01T06:25:23.609Z,81.17
2023-04-01T06:26:23.758Z,80.97
2023-04-01T06:27:24.247Z,80.97
2023-04-01T06:28:24.395Z,81.07
2023-04-01T06:29:24.750Z,80.87
2023-04-01T06:30:25.022Z,80.87
2023-04-01T06:31:25.519Z,80.97
2023-04-01T06:32:25.795Z,80.97
2023-04-01T06:33:26.048Z,80.66
2023-04-01T06:34:26.253Z,80.56
2023-04-01T06:35:26.610Z,80.46
2023-04-01T06:36:26.987Z,80.46
2023-04-01T06:37:27.175Z,80.60
2023-04-01T06:38:27.376Z,80.56
2023-04-01T06:39:27.709Z,80.35
2023-04-01T06:40:28.020Z,80.25
2023-04-01T06:41:28.388Z,79.94
2023-04-01T06:42:28.584Z,79.84
2023-04-01T06:43:29.925Z,80.15
2023-04-01T06:44:29.232Z,80.15
2023-04-01T06:45:29.609Z,80.08
2023-04-01T06:46:29.937Z,80.19
2023-04-01T06:47:30.389Z,80.39
2023-04-01T06:48:30.543Z,80.29
2023-04-01T06:49:30.921Z,80.49
2023-04-01T06:50:31.094Z,80.49
2023-04-01T06:51:31.448Z,80.60
2023-04-01T06:52:31.651Z,80.69
2023-04-01T06:53:31.981Z,80.80
2023-04-01T06:54:32.382Z,80.60
2023-04-01T06:55:32.724Z,80.66
2023-04-01T06:56:32.899Z,80.56
2023-04-01T06:57:33.208Z,80.66
2023-04-01T06:58:33.454Z,80.46
2023-04-01T06:59:33.688Z,80.56
2023-04-01T07:00:33.951Z,80.76
2023-04-01T07:01:34.233Z,80.66
2023-04-01T07:02:34.440Z,80.76
2023-04-01T07:03:34.777Z,80.66
2023-04-01T07:04:35.034Z,80.46
2023-04-01T07:05:35.215Z,80.42
2023-04-01T07:06:35.493Z,80.25
2023-04-01T07:07:36.663Z,80.25
2023-04-01T07:08:36.199Z,80.56
2023-04-01T07:09:36.377Z,80.35
2023-04-01T07:10:36.739Z,80.35
2023-04-01T07:11:36.980Z,80.25
2023-04-01T07:12:37.301Z,80.35
2023-04-01T07:13:37.526Z,80.11
2023-04-01T07:14:37.826Z,79.84
2023-04-01T07:15:38.114Z,80.35
2023-04-01T07:16:38.347Z,80.56
2023-04-01T07:17:38.513Z,80.66
2023-04-01T07:18:38.826Z,80.66
2023-04-01T07:19:39.116Z,81.07
2023-04-01T07:20:39.454Z,81.07
2023-04-01T07:21:39.800Z,81.27
2023-04-01T07:22:40.140Z,81.07
2023-04-01T07:23:40.453Z,81.17
2023-04-01T07:24:40.835Z,81.27
2023-04-01T07:25:41.157Z,81.27
2023-04-01T07:26:41.348Z,81.24
2023-04-01T07:27:41.818Z,80.93
2023-04-01T07:28:41.982Z,80.83
2023-04-01T07:29:42.359Z,80.83
2023-04-01T07:30:42.566Z,80.48
2023-04-01T07:31:42.876Z,80.48
2023-04-01T07:32:43.186Z,80.62
2023-04-01T07:33:43.371Z,80.73
2023-04-01T07:34:43.722Z,80.73
2023-04-01T07:35:44.002Z,80.93
2023-04-01T07:36:44.357Z,80.93
2023-04-01T07:37:44.700Z,80.93
2023-04-01T07:38:44.969Z,80.73
2023-04-01T07:39:45.154Z,80.73
2023-04-01T07:40:45.381Z,80.73
2023-04-01T07:41:45.732Z,80.73
2023-04-01T07:42:45.996Z,80.73
2023-04-01T07:43:46.301Z,81.03
2023-04-01T07:44:46.556Z,81.13
2023-04-01T07:45:46.850Z,81.13
2023-04-01T07:46:47.265Z,81.13
2023-04-01T07:47:47.529Z,81.13
2023-04-01T07:48:47.672Z,81.13
2023-04-01T07:49:48.041Z,81.34
2023-04-01T07:50:49.482Z,81.34
2023-04-01T07:51:48.511Z,81.44
2023-04-01T07:52:48.805Z,81.44
2023-04-01T07:53:49.163Z,81.54
2023-04-01T07:54:49.401Z,81.54
2023-04-01T07:55:49.725Z,81.54
2023-04-01T07:56:49.873Z,81.44
2023-04-01T07:57:50.195Z,81.13
2023-04-01T07:58:50.435Z,81.34
2023-04-01T07:59:50.682Z,81.34
2023-04-01T08:00:50.849Z,81.44
2023-04-01T08:01:51.197Z,81.54
2023-04-01T08:02:51.533Z,81.44
2023-04-01T08:03:51.868Z,81.65
2023-04-01T08:04:52.010Z,81.65
2023-04-01T08:05:52.284Z,81.44
2023-04-01T08:06:52.499Z,81.30
2023-04-01T08:07:52.922Z,80.99
2023-04-01T08:08:53.009Z,80.89
2023-04-01T08:09:53.346Z,80.99
2023-04-01T08:10:53.539Z,81.10
2023-04-01T08:11:53.813Z,81.54
2023-04-01T08:12:54.314Z,81.81
2023-04-01T08:13:54.456Z,81.65
2023-04-01T08:14:54.627Z,81.65
2023-04-01T08:15:55.010Z,81.51
2023-04-01T08:16:55.203Z,81.51
2023-04-01T08:17:55.670Z,81.60
2023-04-01T08:18:55.991Z,81.60
2023-04-01T08:19:56.163Z,81.60
2023-04-01T08:20:56.699Z,81.51
2023-04-01T08:21:56.646Z,81.81
2023-04-01T08:22:56.822Z,82.12
2023-04-01T08:23:57.246Z,82.22
2023-04-01T08:24:57.385Z,82.32
2023-04-01T08:25:57.683Z,82.42
2023-04-01T08:26:57.907Z,82.53
2023-04-01T08:27:58.202Z,82.42
2023-04-01T08:28:58.355Z,82.42
2023-04-01T08:29:58.757Z,82.32
2023-04-01T08:30:58.948Z,82.32
2023-04-01T08:31:59.318Z,82.22
2023-04-01T08:32:59.522Z,82.01
2023-04-01T08:33:59.685Z,81.91
2023-04-01T08:35:00.096Z,81.87
2023-04-01T08:36:00.374Z,81.87
2023-04-01T08:37:00.554Z,81.87
2023-04-01T08:38:00.931Z,82.01
2023-04-01T08:39:01.114Z,82.18
2023-04-01T08:40:06.848Z,82.08
2023-04-01T08:41:01.832Z,81.87
2023-04-01T08:42:02.049Z,81.98
2023-04-01T08:43:02.387Z,81.98
2023-04-01T08:44:02.746Z,81.77
2023-04-01T08:45:04.044Z,81.67
2023-04-01T08:46:03.338Z,81.67
2023-04-01T08:47:03.557Z,81.57
2023-04-01T08:48:03.870Z,81.87
2023-04-01T08:49:04.058Z,82.28
2023-04-01T08:50:04.725Z,82.14
2023-04-01T08:51:06.055Z,82.14
2023-04-01T08:52:04.863Z,82.24
2023-04-01T08:53:05.190Z,82.55
2023-04-01T08:54:05.525Z,82.89
2023-04-01T08:55:05.820Z,83.30
2023-04-01T08:56:06.043Z,83.30
2023-04-01T08:57:06.569Z,83.61
2023-04-01T08:58:06.730Z,83.92
2023-04-01T08:59:07.070Z,84.47
2023-04-01T09:00:07.344Z,84.88
2023-04-01T09:01:07.537Z,84.77
2023-04-01T09:02:07.941Z,85.02
2023-04-01T09:03:08.330Z,85.63
2023-04-01T09:04:08.483Z,85.94
2023-04-01T09:05:08.794Z,86.14
2023-04-01T09:06:09.047Z,85.94
2023-04-01T09:07:10.955Z,85.94
2023-04-01T09:08:09.440Z,86.24
2023-04-01T09:09:10.288Z,86.55
2023-04-01T09:10:10.020Z,86.76
2023-04-01T09:11:10.416Z,86.55
2023-04-01T09:12:10.717Z,86.35
2023-04-01T09:13:10.849Z,86.24
2023-04-01T09:14:11.112Z,86.24
2023-04-01T09:15:11.530Z,86.35
2023-04-01T09:16:11.916Z,86.44
2023-04-01T09:17:12.074Z,86.41
2023-04-01T09:18:13.641Z,86.30
2023-04-01T09:19:12.986Z,86.10
2023-04-01T09:20:12.914Z,86.35
2023-04-01T09:21:13.678Z,86.96
2023-04-01T09:22:13.495Z,87.16
2023-04-01T09:23:13.810Z,87.71
2023-04-01T09:24:14.022Z,88.02
2023-04-01T09:25:14.301Z,87.92
2023-04-01T09:26:14.925Z,87.88
2023-04-01T09:27:14.928Z,87.67
2023-04-01T09:28:15.330Z,87.57
2023-04-01T09:29:15.437Z,87.47
2023-04-01T09:30:15.699Z,87.77
2023-04-01T09:31:16.011Z,87.67
2023-04-01T09:32:16.234Z,87.67
2023-04-01T09:33:16.625Z,87.67
2023-04-01T09:34:16.937Z,87.67
2023-04-01T09:35:17.237Z,87.77
2023-04-01T09:36:17.451Z,87.88
2023-04-01T09:37:18.146Z,87.88
2023-04-01T09:38:17.925Z,87.88
2023-04-01T09:39:18.132Z,87.88
2023-04-01T09:40:18.366Z,87.77
2023-04-01T09:41:18.641Z,87.77
2023-04-01T09:42:18.902Z,87.88
2023-04-01T09:43:19.328Z,87.77
2023-04-01T09:44:19.547Z,87.88
2023-04-01T09:45:19.954Z,88.08
2023-04-01T09:46:20.214Z,88.29
2023-04-01T09:47:20.353Z,87.98
2023-04-01T09:48:20.642Z,87.88
2023-04-01T09:49:20.895Z,87.63
2023-04-01T09:50:21.127Z,87.43
2023-04-01T09:51:21.494Z,87.23
2023-04-01T09:52:21.734Z,87.12
2023-04-01T09:53:21.980Z,86.61
2023-04-01T09:54:22.270Z,86.91
2023-04-01T09:55:22.472Z,87.02
2023-04-01T09:56:22.740Z,86.71
2023-04-01T09:57:23.145Z,86.71
2023-04-01T09:58:23.301Z,86.47
2023-04-01T09:59:23.548Z,85.86
2023-04-01T10:00:24.068Z,85.75
2023-04-01T10:01:24.171Z,85.35
2023-04-01T10:02:24.311Z,85.35
2023-04-01T10:03:24.490Z,85.04
2023-04-01T10:04:24.891Z,84.74
2023-04-01T10:05:25.147Z,84.49
2023-04-01T10:06:25.377Z,83.78
2023-04-01T10:07:25.675Z,83.98
2023-04-01T10:08:25.956Z,83.40
2023-04-01T10:09:26.102Z,83.47
2023-04-01T10:10:26.400Z,83.26
2023-04-01T10:11:26.601Z,83.06
2023-04-01T10:12:27.021Z,82.82
2023-04-01T10:13:27.204Z,82.41
2023-04-01T10:14:27.459Z,82.31
2023-04-01T10:15:27.924Z,82.41
2023-04-01T10:16:28.082Z,82.61
2023-04-01T10:17:28.429Z,82.31
2023-04-01T10:18:28.813Z,82.31
2023-04-01T10:19:28.966Z,82.10
2023-04-01T10:20:29.385Z,82.00
2023-04-01T10:21:29.579Z,82.10
2023-04-01T10:22:29.906Z,82.00
2023-04-01T10:23:30.282Z,82.31
2023-04-01T10:24:30.582Z,82.31
2023-04-01T10:25:31.124Z,82.31
2023-04-01T10:26:31.154Z,82.21
2023-04-01T10:27:31.512Z,82.21
2023-04-01T10:28:31.829Z,81.86
2023-04-01T10:29:32.135Z,81.66
2023-04-01T10:30:32.502Z,81.66
2023-04-01T10:31:32.729Z,81.41
2023-04-01T10:32:33.086Z,81.11
2023-04-01T10:33:33.300Z,80.80
2023-04-01T10:34:33.545Z,80.91
2023-04-01T10:35:34.054Z,81.04
2023-04-01T10:36:33.984Z,81.35
2023-04-01T10:37:34.282Z,81.45
2023-04-01T10:38:34.482Z,81.76
2023-04-01T10:39:34.795Z,81.66
2023-04-01T10:40:35.158Z,81.66
2023-04-01T10:41:36.291Z,81.86
2023-04-01T10:42:35.702Z,81.76
2023-04-01T10:43:35.907Z,81.45
2023-04-01T10:44:36.272Z,81.25
2023-04-01T10:45:36.702Z,81.56
2023-04-01T10:46:36.784Z,81.56
2023-04-01T10:47:37.027Z,81.62
2023-04-01T10:48:37.335Z,81.52
2023-04-01T10:49:37.634Z,81.21
2023-04-01T10:50:38.000Z,81.11
2023-04-01T10:51:38.225Z,81.11
2023-04-01T10:52:38.600Z,81.21
2023-04-01T10:53:38.831Z,81.62
2023-04-01T10:54:39.155Z,81.52
2023-04-01T10:55:39.359Z,81.31
2023-04-01T10:56:39.829Z,81.41
2023-04-01T10:57:40.067Z,81.96
2023-04-01T10:58:40.253Z,81.72
2023-04-01T10:59:40.455Z,81.82
2023-04-01T11:00:41.001Z,81.82
2023-04-01T11:01:41.074Z,82.07
2023-04-01T11:02:41.496Z,82.57
2023-04-01T11:03:41.642Z,82.57
2023-04-01T11:04:41.862Z,82.68
2023-04-01T11:05:42.373Z,82.68
2023-04-01T11:06:42.591Z,82.68
2023-04-01T11:07:44.056Z,82.37
2023-04-01T11:08:43.164Z,82.17
2023-04-01T11:09:43.332Z,82.07
2023-04-01T11:10:43.717Z,82.07
2023-04-01T11:11:43.809Z,82.07
2023-04-01T11:12:44.055Z,82.13
2023-04-01T11:13:44.280Z,82.27
2023-04-01T11:14:44.774Z,81.93
2023-04-01T11:15:44.901Z,82.07
2023-04-01T11:16:45.136Z,82.17
2023-04-01T11:17:45.496Z,81.86
2023-04-01T11:18:45.737Z,82.03
2023-04-01T11:19:45.956Z,81.82
2023-04-01T11:20:46.214Z,81.82
2023-04-01T11:21:46.561Z,81.96
2023-04-01T11:22:46.916Z,81.96
2023-04-01T11:23:58.360Z,81.82
2023-04-01T11:24:48.496Z,81.82
2023-04-01T11:25:47.613Z,81.41
2023-04-01T11:26:48.058Z,81.76
2023-04-01T11:27:48.266Z,81.82
2023-04-01T11:28:48.567Z,81.52
2023-04-01T11:29:59.242Z,81.21
2023-04-01T11:30:50.105Z,81.21
2023-04-01T11:31:49.398Z,81.21
2023-04-01T11:32:49.655Z,81.31
2023-04-01T11:33:49.948Z,81.21
2023-04-01T11:34:50.275Z,81.01
2023-04-01T11:35:50.452Z,81.21
2023-04-01T11:36:50.876Z,81.41
2023-04-01T11:37:51.021Z,81.11
2023-04-01T11:38:51.213Z,81.11
2023-04-01T11:39:51.551Z,80.91
2023-04-01T11:40:51.794Z,81.01
2023-04-01T11:41:52.181Z,80.91
2023-04-01T11:42:52.537Z,80.91
2023-04-01T11:43:52.727Z,80.60
2023-04-01T11:44:53.164Z,80.80
2023-04-01T11:45:53.422Z,80.70
2023-04-01T11:46:53.583Z,80.70
2023-04-01T11:47:53.865Z,80.36
2023-04-01T11:48:54.012Z,79.99
2023-04-01T11:49:54.422Z,79.99
2023-04-01T11:50:54.654Z,79.48
2023-04-01T11:51:54.880Z,78.83
2023-04-01T11:52:55.651Z,78.42
2023-04-01T11:53:55.614Z,78.32
2023-04-01T11:54:56.213Z,78.36
2023-04-01T11:55:56.188Z,78.46
2023-04-01T11:56:56.426Z,78.36
2023-04-01T11:57:56.789Z,78.05
2023-04-01T11:58:56.874Z,77.95
2023-04-01T11:59:57.109Z,77.64
2023-04-01T12:00:57.422Z,77.64
2023-04-01T12:01:57.603Z,77.61
2023-04-01T12:02:58.226Z,77.51
2023-04-01T12:03:58.481Z,77.20
2023-04-01T12:04:58.734Z,77.20
2023-04-01T12:05:58.778Z,77.30
2023-04-01T12:06:59.145Z,77.20
2023-04-01T12:07:59.492Z,77.10
2023-04-01T12:08:59.805Z,76.90
2023-04-01T12:09:59.933Z,76.79
2023-04-01T12:11:00.200Z,76.39
2023-04-01T12:12:00.385Z,76.39
2023-04-01T12:13:01.861Z,76.49
2023-04-01T12:14:00.892Z,76.28
2023-04-01T12:15:01.292Z,76.18
2023-04-01T12:16:01.586Z,75.84
2023-04-01T12:17:01.944Z,75.54
2023-04-01T12:18:02.176Z,75.43
2023-04-01T12:19:02.379Z,75.33
2023-04-01T12:20:03.013Z,75.43
2023-04-01T12:21:03.510Z,75.33
2023-04-01T12:22:03.213Z,75.43
2023-04-01T12:23:03.412Z,75.64
2023-04-01T12:24:03.750Z,75.84
2023-04-01T12:25:03.890Z,75.54
2023-04-01T12:26:04.201Z,75.23
2023-04-01T12:27:04.452Z,75.13
2023-04-01T12:28:04.664Z,75.23
2023-04-01T12:29:05.012Z,75.13
2023-04-01T12:30:05.417Z,74.93
2023-04-01T12:31:05.593Z,75.02
2023-04-01T12:32:05.927Z,75.43
2023-04-01T12:33:06.224Z,75.43
2023-04-01T12:34:06.495Z,75.13
2023-04-01T12:35:06.685Z,75.23
2023-04-01T12:36:07.958Z,75.57
2023-04-01T12:37:07.471Z,75.57
2023-04-01T12:38:07.740Z,75.78
2023-04-01T12:39:08.119Z,75.64
2023-04-01T12:40:08.298Z,75.64
2023-04-01T12:41:08.604Z,75.54
2023-04-01T12:42:08.833Z,75.43
2023-04-01T12:43:09.122Z,75.02
2023-04-01T12:44:09.769Z,75.23
2023-04-01T12:45:09.773Z,75.13
2023-04-01T12:46:09.938Z,75.02
2023-04-01T12:47:10.167Z,74.93
2023-04-01T12:48:10.376Z,74.72
2023-04-01T12:49:10.760Z,74.62
2023-04-01T12:50:10.870Z,74.72
2023-04-01T12:51:11.165Z,74.52
2023-04-01T12:52:11.497Z,74.62
2023-04-01T12:53:11.746Z,74.58
2023-04-01T12:54:12.007Z,74.28
2023-04-01T12:55:12.433Z,74.28
2023-04-01T12:56:14.778Z,74.28